createdAt,value
2023-02-08T00:01:31.010Z,104074.41
2023-02-08T00:03:59.567Z,104080.50
2023-02-08T00:06:34.190Z,104073.47
2023-02-08T00:09:04.400Z,104079.56
2023-02-08T00:11:33.045Z,104070.25
2023-02-08T00:14:03.982Z,104075.03
2023-02-08T00:16:32.839Z,104069.69
2023-02-08T00:19:01.491Z,104064.53
2023-02-08T00:21:29.946Z,104060.06
2023-02-08T00:23:58.551Z,104047.59
2023-02-08T00:26:30.959Z,104048.44
2023-02-08T00:28:59.650Z,104049.25
2023-02-08T00:31:28.312Z,104033.22
2023-02-08T00:33:56.872Z,104035.91
2023-02-08T00:36:25.530Z,104040.19
2023-02-08T00:38:54.112Z,104035.84
2023-02-08T00:41:22.894Z,104029.50
2023-02-08T00:43:52.988Z,104046.47
2023-02-08T00:46:21.865Z,104041.97
2023-02-08T00:48:50.391Z,104040.06
2023-02-08T00:51:18.988Z,104032.50
2023-02-08T00:53:48.171Z,104035.34
2023-02-08T00:56:17.488Z,104043.25
2023-02-08T00:58:46.214Z,104042.69
2023-02-08T01:01:16.656Z,104038.38
2023-02-08T01:03:45.608Z,104033.63
2023-02-08T01:06:19.203Z,104039.94
2023-02-08T01:08:47.957Z,104042.13
2023-02-08T01:11:20.203Z,104046.31
2023-02-08T01:13:49.076Z,104057.19
2023-02-08T01:16:21.911Z,104055.00
2023-02-08T01:18:53.512Z,104055.66
2023-02-08T01:21:25.641Z,104061.28
2023-02-08T01:23:55.137Z,104057.69
2023-02-08T01:26:25.934Z,104047.03
2023-02-08T01:28:56.081Z,104041.38
2023-02-08T01:31:30.113Z,104039.88
2023-02-08T01:33:59.924Z,104040.72
2023-02-08T01:36:30.832Z,104043.56
2023-02-08T01:39:00.116Z,104036.31
2023-02-08T01:41:33.072Z,104038.81
2023-02-08T01:44:09.614Z,104035.16
2023-02-08T01:46:43.071Z,104038.53
2023-02-08T01:49:17.705Z,104027.03
2023-02-08T01:51:53.824Z,104031.59
2023-02-08T01:54:25.405Z,104027.97
2023-02-08T01:56:54.870Z,104018.16
2023-02-08T01:59:27.706Z,104026.56
2023-02-08T02:02:00.176Z,104022.50
2023-02-08T02:04:29.486Z,104025.13
2023-02-08T02:07:03.822Z,104012.50
2023-02-08T02:09:43.057Z,104026.97
2023-02-08T02:12:12.749Z,104029.47
2023-02-08T02:14:42.790Z,104025.00
2023-02-08T02:17:14.668Z,104024.94
2023-02-08T02:19:56.100Z,104022.84
2023-02-08T02:23:01.537Z,104029.97
2023-02-08T02:26:11.366Z,104027.09
2023-02-08T02:29:20.429Z,104015.78
2023-02-08T02:32:09.432Z,104019.25
2023-02-08T02:34:46.250Z,104017.41
2023-02-08T02:37:38.751Z,104012.06
2023-02-08T02:40:19.698Z,104018.22
2023-02-08T02:43:19.823Z,104013.09
2023-02-08T02:46:00.903Z,104005.59
2023-02-08T02:48:41.918Z,104004.59
2023-02-08T02:51:15.336Z,104008.13
2023-02-08T02:53:53.466Z,104017.13
2023-02-08T02:56:28.365Z,104018.88
2023-02-08T02:59:05.779Z,104018.31
2023-02-08T03:01:35.131Z,104013.69
2023-02-08T03:04:16.294Z,104013.28
2023-02-08T03:07:02.252Z,104011.72
2023-02-08T03:09:54.139Z,104006.03
2023-02-08T03:12:37.570Z,104016.84
2023-02-08T03:15:16.933Z,104019.25
2023-02-08T03:18:01.328Z,104005.16
2023-02-08T03:20:37.232Z,104005.00
2023-02-08T03:23:16.376Z,103998.19
2023-02-08T03:25:55.344Z,104000.69
2023-02-08T03:28:30.111Z,103991.00
2023-02-08T03:31:09.952Z,103989.91
2023-02-08T03:33:46.482Z,103997.25
2023-02-08T03:36:23.150Z,103989.19
2023-02-08T03:38:55.633Z,103993.75
2023-02-08T03:41:30.833Z,103998.00
2023-02-08T03:44:04.981Z,103991.09
2023-02-08T03:46:38.346Z,104001.66
2023-02-08T03:49:13.628Z,103998.91
2023-02-08T03:51:46.682Z,104002.34
2023-02-08T03:54:20.897Z,103993.63
2023-02-08T03:56:58.922Z,103998.91
2023-02-08T03:59:33.854Z,103990.06
2023-02-08T04:02:07.004Z,103985.50
2023-02-08T04:04:39.525Z,103982.88
2023-02-08T04:07:10.152Z,103994.28
2023-02-08T04:09:38.981Z,103994.50
2023-02-08T04:12:09.061Z,103995.16
2023-02-08T04:14:37.555Z,103988.00
2023-02-08T04:17:06.223Z,103994.28
2023-02-08T04:19:34.900Z,103980.16
2023-02-08T04:22:03.960Z,103987.03
2023-02-08T04:24:35.572Z,103995.06
2023-02-08T04:27:05.958Z,103989.78
2023-02-08T04:29:35.466Z,103980.72
2023-02-08T04:32:05.099Z,103978.63
2023-02-08T04:34:34.061Z,103983.25
2023-02-08T04:37:03.189Z,103976.22
2023-02-08T04:39:33.439Z,103978.91
2023-02-08T04:42:03.413Z,103971.84
2023-02-08T04:44:32.981Z,103982.25
2023-02-08T04:47:02.198Z,103977.09
2023-02-08T04:49:30.934Z,103974.72
2023-02-08T04:51:59.467Z,103975.06
2023-02-08T04:54:28.035Z,103969.56
2023-02-08T04:56:58.046Z,103973.38
2023-02-08T04:59:26.655Z,103967.88
2023-02-08T05:01:55.415Z,103973.53
2023-02-08T05:04:24.097Z,103963.94
2023-02-08T05:06:52.764Z,103970.19
2023-02-08T05:09:21.431Z,103966.44
2023-02-08T05:11:49.952Z,103965.56
2023-02-08T05:14:20.068Z,103960.28
2023-02-08T05:16:48.881Z,103952.19
2023-02-08T05:19:17.567Z,103951.75
2023-02-08T05:21:46.259Z,103950.75
2023-02-08T05:24:14.802Z,103949.22
2023-02-08T05:26:43.886Z,103944.84
2023-02-08T05:29:12.659Z,103952.78
2023-02-08T05:31:43.352Z,103952.69
2023-02-08T05:34:12.503Z,103940.22
2023-02-08T05:36:41.186Z,103944.06
2023-02-08T05:39:09.797Z,103946.59
2023-02-08T05:41:38.446Z,103949.00
2023-02-08T05:44:07.158Z,103951.25
2023-02-08T05:46:38.090Z,103943.47
2023-02-08T05:49:08.665Z,103949.81
2023-02-08T05:51:37.388Z,103946.44
2023-02-08T05:54:06.395Z,103953.50
2023-02-08T05:56:35.415Z,103950.75
2023-02-08T05:59:06.169Z,103939.63
2023-02-08T06:01:36.376Z,103945.78
2023-02-08T06:04:05.496Z,103943.94
2023-02-08T06:06:35.796Z,103955.47
2023-02-08T06:09:05.105Z,103957.34
2023-02-08T06:11:34.260Z,103944.66
2023-02-08T06:14:03.750Z,103957.13
2023-02-08T06:16:32.905Z,103964.72
2023-02-08T06:19:01.846Z,103964.03
2023-02-08T06:21:30.800Z,103962.13
2023-02-08T06:24:03.775Z,103961.41
2023-02-08T06:26:32.560Z,103952.56
2023-02-08T06:29:01.669Z,103962.25
2023-02-08T06:31:30.621Z,103968.00
2023-02-08T06:33:59.504Z,103960.91
2023-02-08T06:36:28.503Z,103965.34
2023-02-08T06:38:58.961Z,103959.25
2023-02-08T06:41:41.871Z,103952.75
2023-02-08T06:44:11.241Z,103945.88
2023-02-08T06:46:40.433Z,103932.94
2023-02-08T06:49:09.537Z,103930.47
2023-02-08T06:51:38.427Z,103937.47
2023-02-08T06:54:07.229Z,103932.44
2023-02-08T06:56:38.357Z,103941.72
2023-02-08T06:59:07.643Z,103940.50
2023-02-08T07:01:36.704Z,103944.06
2023-02-08T07:04:06.683Z,103946.41
2023-02-08T07:06:35.571Z,103942.31
2023-02-08T07:09:06.757Z,103944.06
2023-02-08T07:11:38.590Z,103946.03
2023-02-08T07:14:08.575Z,103955.06
2023-02-08T07:16:40.848Z,103947.28
2023-02-08T07:19:09.582Z,103946.72
2023-02-08T07:21:38.595Z,103944.44
2023-02-08T07:24:08.963Z,103951.59
2023-02-08T07:26:39.296Z,103948.94
2023-02-08T07:29:08.120Z,103953.38
2023-02-08T07:31:36.864Z,103951.41
2023-02-08T07:34:05.382Z,103943.22
2023-02-08T07:36:35.874Z,103934.16
2023-02-08T07:39:04.993Z,103930.13
2023-02-08T07:41:33.711Z,103928.53
2023-02-08T07:44:03.797Z,103936.78
2023-02-08T07:46:32.482Z,103935.88
2023-02-08T07:49:01.107Z,103931.06
2023-02-08T07:51:33.337Z,103934.88
2023-02-08T07:54:02.055Z,103939.56
2023-02-08T07:56:30.835Z,103935.66
2023-02-08T07:58:59.629Z,103928.69
2023-02-08T08:01:30.333Z,103925.72
2023-02-08T08:03:59.771Z,103930.59
2023-02-08T08:06:28.310Z,103940.88
2023-02-08T08:08:57.283Z,103940.94
2023-02-08T08:11:26.078Z,103930.41
2023-02-08T08:13:54.765Z,103936.94
2023-02-08T08:16:23.266Z,103931.00
2023-02-08T08:18:53.998Z,103929.16
2023-02-08T08:21:22.913Z,103915.88
2023-02-08T08:23:51.622Z,103921.19
2023-02-08T08:26:22.735Z,103927.53
2023-02-08T08:28:51.299Z,103924.47
2023-02-08T08:31:23.777Z,103925.69
2023-02-08T08:33:53.954Z,103914.88
2023-02-08T08:36:22.504Z,103913.97
2023-02-08T08:38:53.021Z,103914.28
2023-02-08T08:41:23.448Z,103914.19
2023-02-08T08:43:52.946Z,103909.13
2023-02-08T08:46:22.985Z,103905.63
2023-02-08T08:48:54.384Z,103912.50
2023-02-08T08:51:23.236Z,103910.78
2023-02-08T08:53:52.920Z,103915.25
2023-02-08T08:56:21.794Z,103908.88
2023-02-08T08:58:50.923Z,103910.06
2023-02-08T09:01:19.592Z,103917.97
2023-02-08T09:03:48.598Z,103915.63
2023-02-08T09:06:20.355Z,103905.50
2023-02-08T09:08:51.632Z,103901.34
2023-02-08T09:11:20.590Z,103907.56
2023-02-08T09:13:53.072Z,103904.09
2023-02-08T09:16:22.217Z,103910.94
2023-02-08T09:18:51.930Z,103901.41
2023-02-08T09:21:25.904Z,103898.59
2023-02-08T09:23:54.683Z,103901.41
2023-02-08T09:26:24.853Z,103915.06
2023-02-08T09:28:53.722Z,103919.06
2023-02-08T09:31:25.421Z,103917.41
2023-02-08T09:33:56.526Z,103912.69
2023-02-08T09:36:29.232Z,103907.75
2023-02-08T09:39:00.925Z,103913.66
2023-02-08T09:41:57.071Z,103918.81
2023-02-08T09:44:32.809Z,103913.16
2023-02-08T09:47:10.916Z,103911.13
2023-02-08T09:49:46.102Z,103912.44
2023-02-08T09:52:19.413Z,103911.59
2023-02-08T09:54:55.281Z,103915.81
2023-02-08T09:57:30.917Z,103926.69
2023-02-08T10:00:03.710Z,103918.91
2023-02-08T10:02:35.248Z,103909.28
2023-02-08T10:05:07.928Z,103921.50
2023-02-08T10:07:41.186Z,103922.53
2023-02-08T10:10:17.414Z,103914.06
2023-02-08T10:12:59.019Z,103913.88
2023-02-08T10:15:43.263Z,103916.13
2023-02-08T10:18:38.488Z,103912.00
2023-02-08T10:21:42.685Z,103931.00
2023-02-08T10:24:35.891Z,103928.97
2023-02-08T10:27:15.874Z,103935.38
2023-02-08T10:30:11.129Z,103924.63
2023-02-08T10:32:55.005Z,103934.59
2023-02-08T10:35:32.348Z,103931.88
2023-02-08T10:38:01.235Z,103927.28
2023-02-08T10:40:39.747Z,103929.13
2023-02-08T10:43:28.520Z,103931.97
2023-02-08T10:46:05.878Z,103919.44
2023-02-08T10:48:51.018Z,103920.25
2023-02-08T10:51:24.381Z,103915.84
2023-02-08T10:53:54.954Z,103916.81
2023-02-08T10:56:47.569Z,103917.75
2023-02-08T10:59:21.601Z,103914.75
2023-02-08T11:01:51.944Z,103905.22
2023-02-08T11:04:21.105Z,103903.50
2023-02-08T11:06:51.887Z,103889.09
2023-02-08T11:09:30.358Z,103895.28
2023-02-08T11:12:03.461Z,103889.78
2023-02-08T11:14:47.279Z,103888.66
2023-02-08T11:17:29.995Z,103885.63
2023-02-08T11:19:59.545Z,103872.50
2023-02-08T11:22:32.237Z,103878.97
2023-02-08T11:25:04.339Z,103879.88
2023-02-08T11:27:40.538Z,103876.63
2023-02-08T11:30:24.537Z,103873.94
2023-02-08T11:33:18.600Z,103876.63
2023-02-08T11:35:57.839Z,103856.06
2023-02-08T11:38:28.593Z,103858.81
2023-02-08T11:41:00.555Z,103858.66
2023-02-08T11:43:34.268Z,103857.00
2023-02-08T11:46:06.399Z,103850.00
2023-02-08T11:48:47.870Z,103847.41
2023-02-08T11:51:29.236Z,103847.28
2023-02-08T11:53:58.338Z,103832.25
2023-02-08T11:56:31.066Z,103842.94
2023-02-08T11:59:18.719Z,103826.94
2023-02-08T12:01:47.296Z,103834.94
2023-02-08T12:04:18.236Z,103818.91
2023-02-08T12:07:13.339Z,103815.28
2023-02-08T12:10:14.707Z,103818.78
2023-02-08T12:13:03.192Z,103814.38
2023-02-08T12:15:57.906Z,103805.53
2023-02-08T12:19:08.238Z,103795.75
2023-02-08T12:21:44.117Z,103798.38
2023-02-08T12:24:21.701Z,103789.53
2023-02-08T12:27:05.035Z,103798.38
2023-02-08T12:29:48.086Z,103788.63
2023-02-08T12:32:54.509Z,103777.91
2023-02-08T12:36:04.780Z,103780.59
2023-02-08T12:39:19.964Z,103773.50
2023-02-08T12:42:16.905Z,103770.75
2023-02-08T12:45:17.502Z,103770.75
2023-02-08T12:48:10.951Z,103761.94
2023-02-08T12:50:46.020Z,103761.91
2023-02-08T12:53:22.824Z,103756.50
2023-02-08T12:55:53.976Z,103747.63
2023-02-08T12:58:30.717Z,103750.28
2023-02-08T13:01:07.033Z,103751.22
2023-02-08T13:03:46.324Z,103751.25
2023-02-08T13:06:22.490Z,103742.19
2023-02-08T13:08:58.896Z,103728.03
2023-02-08T13:11:37.196Z,103730.72
2023-02-08T13:14:13.413Z,103715.50
2023-02-08T13:16:47.197Z,103718.94
2023-02-08T13:19:28.248Z,103729.63
2023-02-08T13:21:57.373Z,103727.13
2023-02-08T13:24:34.714Z,103722.75
2023-02-08T13:27:03.699Z,103712.56
2023-02-08T13:29:35.131Z,103709.09
2023-02-08T13:32:08.989Z,103714.81
2023-02-08T13:34:44.803Z,103709.75
2023-02-08T13:37:26.077Z,103709.63
2023-02-08T13:40:05.813Z,103700.25
2023-02-08T13:42:42.907Z,103705.16
2023-02-08T13:45:24.726Z,103706.41
2023-02-08T13:48:00.464Z,103694.63
2023-02-08T13:50:49.529Z,103692.59
2023-02-08T13:53:19.955Z,103689.34
2023-02-08T13:55:59.245Z,103691.25
2023-02-08T13:59:03.036Z,103683.97
2023-02-08T14:01:37.859Z,103681.59
2023-02-08T14:04:34.366Z,103673.31
2023-02-08T14:07:23.247Z,103673.31
2023-02-08T14:10:11.444Z,103664.28
2023-02-08T14:12:49.571Z,103658.41
2023-02-08T14:15:38.028Z,103655.47
2023-02-08T14:18:22.883Z,103658.56
2023-02-08T14:21:03.790Z,103652.69
2023-02-08T14:23:40.400Z,103649.28
2023-02-08T14:26:21.254Z,103645.91
2023-02-08T14:28:57.304Z,103643.09
2023-02-08T14:31:42.782Z,103634.13
2023-02-08T14:34:36.524Z,103636.22
2023-02-08T14:37:27.429Z,103617.25
2023-02-08T14:40:48.732Z,103627.19
2023-02-08T14:43:40.784Z,103616.72
2023-02-08T14:46:45.840Z,103619.34
2023-02-08T14:49:17.266Z,103613.22
2023-02-08T14:51:53.015Z,103610.44
2023-02-08T14:54:26.716Z,103605.19
2023-02-08T14:57:03.492Z,103607.75
2023-02-08T14:59:35.675Z,103600.28
2023-02-08T15:02:15.965Z,103591.59
2023-02-08T15:04:45.953Z,103587.28
2023-02-08T15:07:33.492Z,103580.78
2023-02-08T15:10:05.628Z,103586.13
2023-02-08T15:12:40.692Z,103571.16
2023-02-08T15:15:26.461Z,103581.97
2023-02-08T15:17:56.433Z,103572.28
2023-02-08T15:20:28.239Z,103571.25
2023-02-08T15:23:02.988Z,103568.28
2023-02-08T15:25:34.797Z,103561.31
2023-02-08T15:28:19.443Z,103559.69
2023-02-08T15:30:57.249Z,103555.66
2023-02-08T15:33:26.503Z,103554.81
2023-02-08T15:36:01.226Z,103551.16
2023-02-08T15:38:31.232Z,103562.59
2023-02-08T15:41:08.967Z,103554.28
2023-02-08T15:43:40.892Z,103547.09
2023-02-08T15:46:21.469Z,103547.16
2023-02-08T15:48:51.513Z,103550.75
2023-02-08T15:51:23.304Z,103539.75
2023-02-08T15:53:56.128Z,103547.72
2023-02-08T15:56:37.500Z,103540.38
2023-02-08T15:59:15.389Z,103530.22
2023-02-08T16:01:48.717Z,103533.72
2023-02-08T16:04:17.496Z,103538.22
2023-02-08T16:06:51.562Z,103533.88
2023-02-08T16:09:23.101Z,103530.47
2023-02-08T16:11:52.797Z,103523.97
2023-02-08T16:14:29.021Z,103520.16
2023-02-08T16:16:59.685Z,103529.22
2023-02-08T16:19:29.893Z,103527.31
2023-02-08T16:22:17.314Z,103525.97
2023-02-08T16:24:47.831Z,103517.03
2023-02-08T16:27:27.370Z,103512.53
2023-02-08T16:29:57.940Z,103514.31
2023-02-08T16:32:32.910Z,103501.06
2023-02-08T16:35:12.307Z,103502.81
2023-02-08T16:37:41.161Z,103498.38
2023-02-08T16:40:49.016Z,103495.97
2023-02-08T16:43:25.533Z,103495.13
2023-02-08T16:46:22.630Z,103489.75
2023-02-08T16:48:54.336Z,103484.34
2023-02-08T16:51:26.013Z,103480.03
2023-02-08T16:53:58.590Z,103490.66
2023-02-08T16:56:27.423Z,103485.34
2023-02-08T16:58:56.304Z,103490.69
2023-02-08T17:01:28.707Z,103483.53
2023-02-08T17:03:58.502Z,103480.94
2023-02-08T17:06:32.593Z,103476.44
2023-02-08T17:09:03.409Z,103465.81
2023-02-08T17:11:32.814Z,103476.44
2023-02-08T17:14:01.732Z,103472.84
2023-02-08T17:16:34.566Z,103462.91
2023-02-08T17:19:04.349Z,103459.47
2023-02-08T17:21:33.089Z,103464.78
2023-02-08T17:24:03.240Z,103466.34
2023-02-08T17:26:38.270Z,103468.16
2023-02-08T17:29:07.833Z,103454.13
2023-02-08T17:31:43.159Z,103445.91
2023-02-08T17:34:11.579Z,103451.31
2023-02-08T17:36:42.643Z,103440.75
2023-02-08T17:39:12.448Z,103442.50
2023-02-08T17:41:41.798Z,103441.69
2023-02-08T17:44:13.001Z,103432.78
2023-02-08T17:46:44.016Z,103433.56
2023-02-08T17:49:12.514Z,103430.84
2023-02-08T17:51:41.175Z,103431.91
2023-02-08T17:54:11.265Z,103436.25
2023-02-08T17:56:39.786Z,103429.16
2023-02-08T17:59:09.027Z,103438.81
2023-02-08T18:01:37.932Z,103438.09
2023-02-08T18:04:11.186Z,103442.44
2023-02-08T18:06:40.214Z,103435.44
2023-02-08T18:09:08.656Z,103429.19
2023-02-08T18:11:37.634Z,103435.38
2023-02-08T18:14:06.195Z,103444.19
2023-02-08T18:16:36.310Z,103442.41
2023-02-08T18:19:05.143Z,103437.94
2023-02-08T18:21:35.319Z,103435.22
2023-02-08T18:24:04.854Z,103444.97
2023-02-08T18:26:36.506Z,103444.97
2023-02-08T18:29:07.151Z,103440.47
2023-02-08T18:31:36.687Z,103435.06
2023-02-08T18:34:05.947Z,103424.34
2023-02-08T18:36:36.824Z,103434.94
2023-02-08T18:39:06.108Z,103426.53
2023-02-08T18:41:35.318Z,103420.63
2023-02-08T18:44:06.202Z,103416.94
2023-02-08T18:46:35.870Z,103428.53
2023-02-08T18:49:07.147Z,103440.16
2023-02-08T18:51:37.603Z,103437.41
2023-02-08T18:54:07.023Z,103435.63
2023-02-08T18:56:36.090Z,103425.88
2023-02-08T18:59:05.100Z,103420.56
2023-02-08T19:01:34.413Z,103422.31
2023-02-08T19:04:04.220Z,103425.81
2023-02-08T19:06:36.190Z,103436.34
2023-02-08T19:09:08.832Z,103438.94
2023-02-08T19:11:40.976Z,103436.25
2023-02-08T19:14:13.888Z,103432.50
2023-02-08T19:16:44.204Z,103430.63
2023-02-08T19:19:15.073Z,103428.75
2023-02-08T19:21:43.642Z,103418.81
2023-02-08T19:24:15.572Z,103425.00
2023-02-08T19:26:44.728Z,103428.38
2023-02-08T19:29:16.251Z,103418.53
2023-02-08T19:31:46.279Z,103429.06
2023-02-08T19:34:15.032Z,103421.09
2023-02-08T19:36:49.384Z,103418.50
2023-02-08T19:39:22.642Z,103419.28
2023-02-08T19:41:53.027Z,103420.97
2023-02-08T19:44:22.957Z,103419.13
2023-02-08T19:46:54.571Z,103404.94
2023-02-08T19:49:27.454Z,103402.22
2023-02-08T19:51:56.851Z,103401.38
2023-02-08T19:54:26.942Z,103403.94
2023-02-08T19:56:56.051Z,103417.19
2023-02-08T19:59:27.996Z,103401.16
2023-02-08T20:01:57.259Z,103403.78
2023-02-08T20:04:26.100Z,103391.31
2023-02-08T20:06:56.849Z,103397.44
2023-02-08T20:09:28.030Z,103390.28
2023-02-08T20:11:57.838Z,103391.09
2023-02-08T20:14:28.858Z,103391.06
2023-02-08T20:16:58.335Z,103395.44
2023-02-08T20:19:28.337Z,103392.69
2023-02-08T20:21:57.395Z,103397.09
2023-02-08T20:24:27.980Z,103403.19
2023-02-08T20:26:56.793Z,103407.56
2023-02-08T20:29:27.823Z,103391.41
2023-02-08T20:31:57.850Z,103404.66
2023-02-08T20:34:26.662Z,103404.53
2023-02-08T20:37:07.001Z,103409.75
2023-02-08T20:39:38.863Z,103408.72
2023-02-08T20:42:07.781Z,103401.59
2023-02-08T20:44:36.310Z,103408.56
2023-02-08T20:47:05.266Z,103402.31
2023-02-08T20:49:39.062Z,103402.28
2023-02-08T20:52:08.349Z,103398.59
2023-02-08T20:54:39.362Z,103401.00
2023-02-08T20:57:08.659Z,103400.13
2023-02-08T20:59:37.768Z,103394.88
2023-02-08T21:02:06.739Z,103407.22
2023-02-08T21:04:35.910Z,103390.28
2023-02-08T21:07:04.877Z,103386.72
2023-02-08T21:09:33.530Z,103383.91
2023-02-08T21:12:05.675Z,103395.47
2023-02-08T21:14:34.565Z,103380.25
2023-02-08T21:17:03.440Z,103382.94
2023-02-08T21:19:32.523Z,103376.66
2023-02-08T21:22:04.225Z,103380.03
2023-02-08T21:24:33.456Z,103371.09
2023-02-08T21:27:05.067Z,103378.22
2023-02-08T21:29:33.923Z,103365.72
2023-02-08T21:32:02.505Z,103370.31
2023-02-08T21:34:31.549Z,103360.47
2023-02-08T21:37:00.116Z,103369.19
2023-02-08T21:39:29.028Z,103364.69
2023-02-08T21:41:57.663Z,103356.66
2023-02-08T21:44:27.832Z,103358.41
2023-02-08T21:46:56.448Z,103353.91
2023-02-08T21:49:42.214Z,103349.38
2023-02-08T21:52:29.609Z,103359.91
2023-02-08T21:54:58.314Z,103350.13
2023-02-08T21:57:29.787Z,103334.16
2023-02-08T22:00:01.408Z,103333.03
2023-02-08T22:02:31.464Z,103341.00
2023-02-08T22:05:02.068Z,103337.50
2023-02-08T22:07:31.299Z,103323.28
2023-02-08T22:10:00.163Z,103325.13
2023-02-08T22:12:28.653Z,103328.56
2023-02-08T22:14:57.330Z,103319.69
2023-02-08T22:17:28.899Z,103316.13
2023-02-08T22:19:57.392Z,103306.53
2023-02-08T22:22:26.244Z,103312.69
2023-02-08T22:24:55.178Z,103294.78
2023-02-08T22:27:24.218Z,103313.22
2023-02-08T22:29:53.009Z,103304.22
2023-02-08T22:32:21.695Z,103293.81
2023-02-08T22:34:51.616Z,103284.97
2023-02-08T22:37:20.626Z,103293.59
2023-02-08T22:39:49.223Z,103296.41
2023-02-08T22:42:17.863Z,103296.47
2023-02-08T22:44:46.583Z,103291.03
2023-02-08T22:47:15.371Z,103280.41
2023-02-08T22:49:44.230Z,103283.06
2023-02-08T22:52:14.882Z,103278.56
2023-02-08T22:54:44.024Z,103283.03
2023-02-08T22:57:13.076Z,103282.09
2023-02-08T22:59:42.321Z,103280.34
2023-02-08T23:02:11.295Z,103278.56
2023-02-08T23:04:39.981Z,103279.47
2023-02-08T23:07:08.614Z,103288.19
2023-02-08T23:09:39.592Z,103289.03
2023-02-08T23:12:08.929Z,103294.25
2023-02-08T23:14:38.708Z,103274.47
2023-02-08T23:17:08.131Z,103280.69
2023-02-08T23:19:36.675Z,103278.94
2023-02-08T23:22:05.645Z,103278.91
2023-02-08T23:24:34.378Z,103269.78
2023-02-08T23:27:04.602Z,103266.38
2023-02-08T23:29:33.369Z,103267.88
2023-02-08T23:32:01.967Z,103269.69
2023-02-08T23:34:30.747Z,103268.78
2023-02-08T23:36:59.724Z,103267.97
2023-02-08T23:39:28.654Z,103265.44
2023-02-08T23:41:57.612Z,103253.03
2023-02-08T23:44:27.706Z,103260.16
2023-02-08T23:46:56.427Z,103263.72
2023-02-08T23:49:25.522Z,103272.66
2023-02-08T23:51:54.932Z,103261.00
2023-02-08T23:54:23.606Z,103265.56
2023-02-08T23:56:53.116Z,103255.72
2023-02-08T23:59:21.662Z,103260.25
